Time;durP1;ratioP1;P1;durP2;ratioP2;P2;SDS_P1;SDS_P2;PMS_P1;PMS_P2;Temp;Humidity;BMP_temperature;BMP_pressure;BME280_temperature;BME280_humidity;BME280_pressure;Samples;Min_cycle;Max_cycle;Signal;HPM_P1;HPM_P2
2022/10/20 00:09:24;;;;;;;26.70;14.75;;;;;;;11.53;100.00;100608.94;20497838;28;20082;-85
2022/10/20 00:19:25;;;;;;;30.48;15.73;;;;;;;11.41;100.00;100610.91;20522883;28;20477;-85
2022/10/20 00:29:27;;;;;;;29.95;15.98;;;;;;;11.39;100.00;100589.06;20495567;28;20662;-84
2022/10/20 00:39:29;;;;;;;30.55;16.35;;;;;;;11.35;100.00;100569.03;20499529;28;20070;-84
2022/10/20 00:49:30;;;;;;;34.60;15.80;;;;;;;11.24;100.00;100554.34;20492718;29;20054;-84
2022/10/20 00:59:32;;;;;;;29.45;15.07;;;;;;;11.17;100.00;100546.63;20495118;28;20055;-85
2022/10/20 01:09:33;;;;;;;28.42;15.73;;;;;;;11.21;100.00;100537.78;20493220;28;20110;-85
2022/10/20 01:19:34;;;;;;;26.30;15.50;;;;;;;11.16;100.00;100526.53;20507113;29;20043;-85
2022/10/20 01:29:36;;;;;;;27.15;14.52;;;;;;;11.13;100.00;100524.84;20510655;28;20094;-85
2022/10/20 01:39:37;;;;;;;27.23;15.00;;;;;;;11.13;100.00;100514.34;20505615;29;20046;-85
2022/10/20 01:49:38;;;;;;;26.00;14.38;;;;;;;11.03;100.00;100495.28;20501579;28;20079;-85
2022/10/20 01:59:40;;;;;;;24.48;13.70;;;;;;;10.98;100.00;100486.66;20505226;29;20043;-85
2022/10/20 02:09:41;;;;;;;26.90;13.73;;;;;;;10.98;100.00;100494.50;20526159;28;20047;-84
2022/10/20 02:19:43;;;;;;;30.45;13.90;;;;;;;10.88;100.00;100486.81;20510420;28;20043;-85
2022/10/20 02:29:44;;;;;;;23.73;13.65;;;;;;;10.89;100.00;100494.63;20491144;29;20062;-85
2022/10/20 02:39:46;;;;;;;26.75;14.35;;;;;;;10.87;100.00;100475.44;20509618;28;20047;-85
2022/10/20 02:49:47;;;;;;;26.90;14.30;;;;;;;10.77;100.00;100468.63;20503932;29;20488;-85
2022/10/20 02:59:48;;;;;;;25.55;13.50;;;;;;;10.76;100.00;100478.25;20514968;28;20428;-85
2022/10/20 03:09:50;;;;;;;21.80;12.07;;;;;;;10.74;100.00;100476.53;20597594;28;20055;-84
2022/10/20 03:19:51;;;;;;;25.08;13.23;;;;;;;10.85;100.00;100460.66;20543870;28;20051;-84
2022/10/20 03:29:52;;;;;;;26.10;13.10;;;;;;;10.78;100.00;100450.28;20511418;29;20075;-84
2022/10/20 03:39:54;;;;;;;21.23;11.88;;;;;;;10.73;100.00;100459.97;20507832;28;20040;-83
2022/10/20 03:49:55;;;;;;;26.13;11.63;;;;;;;10.69;100.00;100454.81;20495689;28;20062;-84
2022/10/20 03:59:57;;;;;;;23.98;12.63;;;;;;;10.64;100.00;100436.53;20492032;28;20043;-84
2022/10/20 04:10:01;;;;;;;22.85;13.15;;;;;;;10.63;100.00;100423.47;20512519;28;20047;-83
2022/10/20 04:20:02;;;;;;;21.47;11.80;;;;;;;10.61;100.00;100402.53;20497687;28;21491;-83
2022/10/20 04:30:03;;;;;;;24.20;12.18;;;;;;;10.55;100.00;100407.03;20510432;28;20509;-85
2022/10/20 04:40:05;;;;;;;23.35;12.77;;;;;;;10.67;100.00;100409.44;20490635;28;20511;-84
2022/10/20 04:50:06;;;;;;;25.75;12.93;;;;;;;10.47;100.00;100402.75;20491616;28;20035;-84
2022/10/20 05:00:07;;;;;;;22.92;12.45;;;;;;;10.42;100.00;100395.88;20514265;28;20137;-84
2022/10/20 05:10:09;;;;;;;23.25;12.65;;;;;;;10.42;100.00;100373.16;20490165;28;20051;-83
2022/10/20 05:20:10;;;;;;;24.20;12.75;;;;;;;10.33;100.00;100365.47;20489356;28;20416;-84
2022/10/20 05:30:11;;;;;;;24.90;12.93;;;;;;;10.38;100.00;100371.47;20492125;28;20428;-84
2022/10/20 05:40:13;;;;;;;25.67;13.75;;;;;;;10.30;100.00;100344.59;20506980;29;20218;-83
2022/10/20 05:50:14;;;;;;;29.48;15.73;;;;;;;10.43;100.00;100363.56;20497592;28;20477;-83
2022/10/20 06:00:17;;;;;;;31.63;17.17;;;;;;;10.39;100.00;100383.66;20510340;28;20047;-84
2022/10/20 06:10:19;;;;;;;25.13;12.35;;;;;;;10.36;100.00;100399.44;20493488;28;20505;-84
2022/10/20 06:20:20;;;;;;;24.00;13.65;;;;;;;9.99;100.00;100386.84;20493272;28;20039;-82
2022/10/20 06:30:21;;;;;;;33.38;14.88;;;;;;;10.15;100.00;100399.69;20505070;28;20051;-82
2022/10/20 06:40:23;;;;;;;25.05;13.50;;;;;;;10.14;100.00;100404.06;20497415;28;20044;-83
2022/10/20 06:50:24;;;;;;;30.60;13.73;;;;;;;10.39;100.00;100407.22;20521161;28;20054;-81
2022/10/20 07:00:25;;;;;;;25.52;13.55;;;;;;;10.49;100.00;100405.34;20500703;28;20050;-82
2022/10/20 07:10:27;;;;;;;23.67;13.20;;;;;;;10.64;100.00;100414.75;20579842;28;20044;-80
2022/10/20 07:20:28;;;;;;;24.38;13.45;;;;;;;10.75;100.00;100403.19;20568729;28;20043;-83
2022/10/20 07:30:29;;;;;;;23.30;12.98;;;;;;;10.99;100.00;100401.91;20526256;28;20067;-81
2022/10/20 07:40:31;;;;;;;24.80;12.23;;;;;;;11.19;100.00;100396.31;20538636;28;20040;-82
2022/10/20 07:50:32;;;;;;;31.90;13.70;;;;;;;11.53;100.00;100414.88;20503899;28;20063;-82
2022/10/20 08:00:34;;;;;;;23.60;12.45;;;;;;;11.82;100.00;100395.97;20494891;28;20497;-82
2022/10/20 08:10:35;;;;;;;25.08;13.48;;;;;;;12.16;100.00;100410.13;20508243;28;20106;-81
2022/10/20 08:20:36;;;;;;;22.02;11.60;;;;;;;12.40;100.00;100398.22;20509491;28;20043;-81
2022/10/20 08:30:38;;;;;;;20.73;11.15;;;;;;;12.66;100.00;100400.22;20511005;28;20066;-81
2022/10/20 08:40:39;;;;;;;20.63;11.45;;;;;;;13.03;100.00;100448.34;20490187;28;20121;-80
2022/10/20 08:50:41;;;;;;;22.75;11.95;;;;;;;13.26;100.00;100454.81;20490632;28;20047;-79
2022/10/20 09:00:42;;;;;;;22.27;11.38;;;;;;;13.58;100.00;100436.41;20495445;28;20404;-81
2022/10/20 09:10:43;;;;;;;19.25;10.88;;;;;;;13.73;100.00;100452.69;20493891;28;20653;-80
2022/10/20 09:20:45;;;;;;;17.05;11.07;;;;;;;13.83;100.00;100430.47;20514756;28;20039;-81
2022/10/20 09:30:46;;;;;;;16.95;9.50;;;;;;;14.06;100.00;100441.19;20505659;28;20055;-82
2022/10/20 09:40:47;;;;;;;21.15;11.23;;;;;;;14.34;100.00;100416.66;20517242;28;20043;-80
2022/10/20 09:50:49;;;;;;;18.33;10.77;;;;;;;14.32;100.00;100429.00;20512987;28;20126;-80
2022/10/20 10:00:50;;;;;;;17.60;10.90;;;;;;;14.59;100.00;100433.44;20517741;28;20039;-82
2022/10/20 10:10:52;;;;;;;14.00;8.88;;;;;;;14.80;100.00;100407.31;20545386;28;20047;-84
2022/10/20 10:20:53;;;;;;;14.52;9.23;;;;;;;15.08;100.00;100392.28;20541225;28;20047;-83
2022/10/20 10:30:55;;;;;;;15.07;9.50;;;;;;;15.01;100.00;100392.56;20501056;29;20078;-83
2022/10/20 10:40:56;;;;;;;14.63;9.60;;;;;;;14.98;100.00;100409.34;20525177;28;20039;-81
2022/10/20 10:50:57;;;;;;;15.07;9.50;;;;;;;15.01;100.00;100413.66;20570571;28;20062;-82
2022/10/20 11:00:59;;;;;;;14.10;8.60;;;;;;;15.06;100.00;100385.34;20618246;28;20169;-82
2022/10/20 11:11:00;;;;;;;19.50;10.70;;;;;;;14.87;100.00;100342.94;20557417;28;20047;-83
2022/10/20 11:21:02;;;;;;;17.50;9.80;;;;;;;14.81;100.00;100344.00;20549030;28;20468;-83
2022/10/20 11:31:03;;;;;;;18.73;9.60;;;;;;;15.23;100.00;100350.47;20554995;28;20055;-83
2022/10/20 11:41:04;;;;;;;16.90;8.93;;;;;;;15.46;100.00;100353.13;20522100;28;20090;-83
2022/10/20 11:51:06;;;;;;;12.30;8.50;;;;;;;15.53;100.00;100344.09;20509031;28;20051;-83
2022/10/20 12:01:07;;;;;;;17.52;9.52;;;;;;;15.31;100.00;100332.59;20514702;28;20055;-83
2022/10/20 12:11:08;;;;;;;18.33;9.02;;;;;;;15.18;100.00;100341.84;20509331;28;20055;-82
2022/10/20 12:21:10;;;;;;;15.82;9.85;;;;;;;14.88;100.00;100339.38;20518472;28;20047;-82
2022/10/20 12:31:11;;;;;;;14.02;9.20;;;;;;;14.95;100.00;100314.53;20525827;28;20047;-82
2022/10/20 12:41:12;;;;;;;13.77;8.55;;;;;;;15.12;100.00;100300.75;20519306;28;20650;-83
2022/10/20 12:51:14;;;;;;;18.50;11.13;;;;;;;15.27;100.00;100284.34;20526957;28;20051;-83
2022/10/20 13:01:15;;;;;;;19.95;10.00;;;;;;;15.19;100.00;100243.34;20508542;28;20058;-83
2022/10/20 13:11:17;;;;;;;17.83;9.88;;;;;;;15.03;100.00;100285.25;20530434;28;20043;-83
2022/10/20 13:21:19;;;;;;;18.80;11.48;;;;;;;15.05;100.00;100281.66;20529103;28;20065;-82
2022/10/20 13:31:20;;;;;;;18.00;10.68;;;;;;;15.17;100.00;100297.94;20519726;28;20051;-81
2022/10/20 13:41:22;;;;;;;20.08;11.63;;;;;;;15.21;100.00;100304.81;20507273;28;20043;-80
2022/10/20 13:51:24;;;;;;;16.38;10.88;;;;;;;15.03;100.00;100312.47;20499960;28;20059;-81
2022/10/20 14:01:25;;;;;;;15.52;8.80;;;;;;;15.08;100.00;100285.94;20495899;28;20047;-82
2022/10/20 14:11:26;;;;;;;15.70;9.45;;;;;;;15.13;100.00;100274.31;20499452;28;20077;-82
2022/10/20 14:21:28;;;;;;;22.10;11.07;;;;;;;15.17;100.00;100237.28;20516463;28;20047;-81
2022/10/20 14:31:29;;;;;;;15.52;10.02;;;;;;;15.19;100.00;100244.22;20574386;28;20099;-81
2022/10/20 14:41:31;;;;;;;15.52;9.40;;;;;;;15.07;100.00;100219.16;20552330;28;20048;-82
2022/10/20 14:51:33;;;;;;;23.77;11.93;;;;;;;15.20;100.00;100216.06;20513007;28;20055;-81
2022/10/20 15:01:34;;;;;;;14.85;10.38;;;;;;;15.12;100.00;100230.41;20526253;28;20106;-81
2022/10/20 15:11:35;;;;;;;19.10;9.52;;;;;;;15.10;100.00;100245.44;20532896;28;20130;-80
2022/10/20 15:21:37;;;;;;;21.52;10.68;;;;;;;15.18;100.00;100245.13;20550047;28;20052;-81
2022/10/20 15:31:38;;;;;;;12.10;8.80;;;;;;;15.14;100.00;100252.31;20557079;28;20047;-81
2022/10/20 15:41:39;;;;;;;14.57;8.40;;;;;;;15.03;100.00;100235.16;20535777;28;20420;-81
2022/10/20 15:51:41;;;;;;;14.95;9.30;;;;;;;14.93;100.00;100225.84;20530848;28;20469;-82
2022/10/20 16:01:42;;;;;;;21.42;12.88;;;;;;;14.72;100.00;100185.34;20541876;28;20039;-82
2022/10/20 16:11:43;;;;;;;15.90;9.82;;;;;;;14.59;100.00;100217.38;20550532;28;20042;-83
2022/10/20 16:21:45;;;;;;;15.25;10.05;;;;;;;14.53;100.00;100222.88;20542596;28;20054;-82
2022/10/20 16:31:46;;;;;;;42.90;24.10;;;;;;;14.50;100.00;100207.16;20566255;28;20043;-82
2022/10/20 16:41:48;;;;;;;31.67;18.77;;;;;;;14.34;100.00;100196.28;20566260;28;20051;-81
2022/10/20 16:51:49;;;;;;;55.00;27.60;;;;;;;14.30;100.00;100193.78;20574574;28;20072;-82
2022/10/20 17:01:50;;;;;;;44.50;27.00;;;;;;;14.23;100.00;100160.66;20588725;28;20047;-81
2022/10/20 17:11:51;;;;;;;28.67;17.30;;;;;;;14.27;100.00;100207.91;20571673;28;20055;-84
2022/10/20 17:21:53;;;;;;;28.52;17.23;;;;;;;14.15;100.00;100197.81;20582930;28;20043;-82
2022/10/20 17:31:56;;;;;;;26.75;16.33;;;;;;;13.87;100.00;100200.50;20577238;28;20047;-82
2022/10/20 17:41:57;;;;;;;39.08;24.38;;;;;;;13.86;100.00;100193.50;20563861;28;20054;-82
2022/10/20 17:51:59;;;;;;;32.10;20.17;;;;;;;13.82;100.00;100176.09;20579280;28;20043;-81
2022/10/20 18:02:00;;;;;;;32.25;19.10;;;;;;;13.87;100.00;100150.47;20573338;28;20081;-82
2022/10/20 18:12:02;;;;;;;29.48;18.15;;;;;;;13.83;100.00;100159.38;20566558;28;20049;-82
2022/10/20 18:22:03;;;;;;;35.60;20.27;;;;;;;13.82;100.00;100141.88;20619220;28;20114;-81
2022/10/20 18:32:04;;;;;;;38.20;21.05;;;;;;;13.91;100.00;100170.53;20541795;28;20043;-82
2022/10/20 18:42:06;;;;;;;39.22;22.77;;;;;;;13.92;100.00;100143.28;20542534;28;20070;-81
2022/10/20 18:52:07;;;;;;;32.47;20.42;;;;;;;13.92;100.00;100122.22;20533324;28;20106;-81
2022/10/20 19:02:08;;;;;;;36.45;23.15;;;;;;;14.01;100.00;100119.28;20533039;28;20047;-81
2022/10/20 19:12:09;;;;;;;30.70;18.92;;;;;;;14.05;100.00;100160.41;20524512;28;20062;-81
2022/10/20 19:22:11;;;;;;;28.58;18.33;;;;;;;14.14;100.00;100139.94;20531156;28;20523;-81
2022/10/20 19:32:12;;;;;;;29.25;18.15;;;;;;;14.19;100.00;100132.75;20552021;28;20051;-80
2022/10/20 19:42:14;;;;;;;29.88;17.30;;;;;;;14.11;100.00;100131.22;20536118;28;20043;-82
2022/10/20 19:52:15;;;;;;;32.90;21.35;;;;;;;14.12;100.00;100105.75;20561566;28;20098;-83
2022/10/20 20:02:16;;;;;;;41.97;25.55;;;;;;;14.06;100.00;100111.25;20520849;28;20051;-83
2022/10/20 20:12:18;;;;;;;27.15;17.10;;;;;;;13.95;100.00;100130.03;20522074;28;20047;-84
2022/10/20 20:22:19;;;;;;;31.08;17.63;;;;;;;13.94;100.00;100175.72;20537699;28;20046;-84
2022/10/20 20:32:21;;;;;;;30.65;19.10;;;;;;;13.91;100.00;100165.25;20547042;28;20039;-83
2022/10/20 20:42:22;;;;;;;61.20;35.13;;;;;;;13.94;100.00;100128.31;20523425;28;20556;-83
2022/10/20 20:52:24;;;;;;;30.58;19.27;;;;;;;13.93;100.00;100121.31;20528370;28;20043;-84
2022/10/20 21:02:26;;;;;;;35.92;20.67;;;;;;;14.01;100.00;100071.91;20522803;28;20047;-84
2022/10/20 21:12:27;;;;;;;32.38;17.88;;;;;;;14.16;100.00;100064.38;20508918;28;20050;-84
2022/10/20 21:22:33;;;;;;;23.63;15.38;;;;;;;14.39;100.00;100093.38;20520339;28;20055;-84
2022/10/20 21:32:34;;;;;;;23.67;14.15;;;;;;;14.45;100.00;100087.88;20513883;28;20491;-84
2022/10/20 21:42:36;;;;;;;25.70;14.75;;;;;;;14.38;100.00;100087.25;20515225;28;20680;-84
2022/10/20 21:52:38;;;;;;;32.58;21.27;;;;;;;14.36;100.00;100051.34;20640712;28;20066;-84
2022/10/20 22:02:40;;;;;;;56.17;31.30;;;;;;;14.26;100.00;100049.97;20560836;28;20075;-84
2022/10/20 22:12:41;;;;;;;20.98;14.18;;;;;;;14.29;100.00;100002.47;20535368;28;20062;-84
2022/10/20 22:22:43;;;;;;;19.85;13.43;;;;;;;14.42;100.00;100021.28;20522684;28;20062;-84
2022/10/20 22:32:44;;;;;;;22.00;13.57;;;;;;;14.42;100.00;99985.28;20497849;28;20078;-85
2022/10/20 22:42:45;;;;;;;23.80;14.73;;;;;;;14.46;100.00;99976.31;20505952;28;20047;-84
2022/10/20 22:52:47;;;;;;;28.38;15.98;;;;;;;14.58;100.00;100031.22;20516465;28;20039;-84
2022/10/20 23:02:48;;;;;;;22.63;13.40;;;;;;;14.52;100.00;100099.97;20540533;28;20043;-82
2022/10/20 23:12:49;;;;;;;22.02;14.20;;;;;;;14.44;100.00;100101.97;20534782;28;20054;-83
2022/10/20 23:22:51;;;;;;;24.67;13.40;;;;;;;14.28;100.00;100087.66;20517401;28;20047;-83
2022/10/20 23:32:52;;;;;;;27.75;17.17;;;;;;;14.16;100.00;100074.91;20512773;28;20058;-83
2022/10/20 23:42:53;;;;;;;27.40;15.95;;;;;;;13.96;100.00;100081.75;20526753;28;20485;-84
2022/10/20 23:52:55;;;;;;;29.95;17.70;;;;;;;13.95;100.00;100047.59;20505855;28;20050;-84
